Terminal Aerodrome Forecast
Issued by NWS

Home | Current Version | Previous Version | Text Only | Print | Product List | Glossary On
Versions: 1 2 3 4 5 6 7 8 9 10 11 12 13 14 15 16 17 18 19 20 21 22 23 24 25 26 27 28 29 30 31 32
000
FTPA31 PHFO 042100 AAB
TAFLNY
TAF AMD
PHNY 042108Z 0421/0518 19009KT P6SM SCT025
      TEMPO 0422/0424 BKN025
     FM050000 25008KT P6SM BKN025
     FM050400 04014KT P6SM SCT025
     FM050900 04006KT P6SM FEW025
      AMD NOT SKED=

USA.gov is the U.S. government's official web portal to all federal, state and local government web resources and services.